Time;durP1;ratioP1;P1;durP2;ratioP2;P2;SDS_P1;SDS_P2;PMS_P1;PMS_P2;Temp;Humidity;BMP_temperature;BMP_pressure;BME280_temperature;BME280_humidity;BME280_pressure;Samples;Min_cycle;Max_cycle;Signal;HPM_P1;HPM_P2
2022/06/26 00:02:29;;;;;;;;;5.25;4.00;25.60;99.90;;;;;;4992073;28;8837;-55
2022/06/26 00:05:00;;;;;;;;;3.00;3.00;25.60;99.90;;;;;;4989761;28;8861;-53
2022/06/26 00:07:30;;;;;;;;;4.25;4.25;25.70;99.90;;;;;;4987939;28;8841;-52
2022/06/26 00:10:01;;;;;;;;;4.00;4.00;25.60;99.90;;;;;;5004266;28;8904;-54
2022/06/26 00:12:33;;;;;;;;;6.00;4.25;25.60;99.90;;;;;;4996437;28;8857;-56
2022/06/26 00:15:03;;;;;;;;;3.00;3.00;25.50;99.90;;;;;;4990413;28;8853;-52
2022/06/26 00:17:35;;;;;;;;;5.50;5.50;25.60;99.90;;;;;;4990595;28;8858;-56
2022/06/26 00:20:07;;;;;;;;;3.50;3.00;25.80;99.90;;;;;;4988106;28;8841;-53
2022/06/26 00:22:38;;;;;;;;;4.75;4.75;25.70;99.90;;;;;;4995756;28;8846;-52
2022/06/26 00:25:10;;;;;;;;;3.00;3.00;25.60;99.90;;;;;;4995045;28;9976;-56
2022/06/26 00:27:41;;;;;;;;;3.00;3.00;25.70;99.90;;;;;;4993454;28;8872;-57
2022/06/26 00:30:13;;;;;;;;;6.50;4.00;25.80;99.90;;;;;;4987517;28;8857;-55
2022/06/26 00:32:45;;;;;;;;;5.00;3.50;25.60;99.90;;;;;;4993517;28;8807;-57
2022/06/26 00:35:15;;;;;;;;;5.00;5.00;25.70;99.90;;;;;;5054722;28;8835;-56
2022/06/26 00:37:44;;;;;;;;;4.25;4.25;25.50;99.90;;;;;;4993240;28;8799;-54
2022/06/26 00:40:15;;;;;;;;;1.75;0.50;25.80;99.90;;;;;;4992889;28;8858;-55
2022/06/26 00:42:45;;;;;;;;;3.25;3.25;25.60;99.90;;;;;;4994607;28;8865;-55
2022/06/26 00:45:15;;;;;;;;;4.75;4.75;25.60;99.90;;;;;;4989359;28;8852;-54
2022/06/26 00:47:46;;;;;;;;;4.00;4.00;25.50;99.90;;;;;;4989139;28;8853;-55
2022/06/26 00:50:18;;;;;;;;;6.75;4.75;25.60;99.90;;;;;;4992083;28;8826;-55
2022/06/26 00:52:50;;;;;;;;;7.25;5.50;25.60;99.90;;;;;;4992470;28;8858;-52
2022/06/26 00:55:20;;;;;;;;;4.00;4.00;25.60;99.90;;;;;;5068342;28;8991;-53
2022/06/26 00:57:52;;;;;;;;;4.50;3.25;25.70;99.90;;;;;;4994720;28;8822;-51
2022/06/26 01:00:23;;;;;;;;;4.25;4.25;25.60;99.90;;;;;;5063292;28;8870;-54
2022/06/26 01:02:53;;;;;;;;;5.00;4.00;25.50;99.90;;;;;;5074370;28;8891;-55
2022/06/26 01:05:24;;;;;;;;;6.25;6.25;25.60;99.90;;;;;;5061259;28;8845;-52
2022/06/26 01:07:55;;;;;;;;;4.75;4.75;25.60;99.90;;;;;;5081068;28;8834;-53
2022/06/26 01:10:25;;;;;;;;;4.00;4.00;25.40;99.90;;;;;;5068821;28;9558;-53
2022/06/26 01:12:56;;;;;;;;;5.00;5.00;25.10;99.90;;;;;;5055930;28;8849;-53
2022/06/26 01:15:28;;;;;;;;;2.00;2.00;24.90;99.90;;;;;;5061859;28;8838;-54
2022/06/26 01:17:59;;;;;;;;;2.25;2.25;24.70;99.90;;;;;;5061754;28;8965;-52
2022/06/26 01:20:30;;;;;;;;;3.75;3.75;24.60;99.90;;;;;;5044032;28;8821;-52
2022/06/26 01:23:04;;;;;;;;;5.25;4.25;24.50;99.90;;;;;;4999751;28;8821;-54
2022/06/26 01:25:42;;;;;;;;;4.75;4.75;24.50;99.90;;;;;;4993535;28;8872;-59
2022/06/26 01:28:13;;;;;;;;;4.00;4.00;24.50;99.90;;;;;;5070720;28;8846;-53
2022/06/26 01:30:45;;;;;;;;;5.00;5.00;24.50;99.90;;;;;;5053922;28;8841;-53
2022/06/26 01:33:16;;;;;;;;;7.25;7.25;24.50;99.90;;;;;;5063308;28;8838;-54
2022/06/26 01:35:48;;;;;;;;;6.25;5.00;24.40;99.90;;;;;;4989518;28;8845;-54
2022/06/26 01:38:21;;;;;;;;;3.00;3.00;24.10;99.90;;;;;;5072960;28;8842;-53
2022/06/26 01:40:56;;;;;;;;;4.00;4.00;24.30;99.90;;;;;;5000411;28;8877;-53
2022/06/26 01:43:31;;;;;;;;;5.25;4.75;24.30;99.90;;;;;;5063845;28;8839;-53
2022/06/26 01:46:04;;;;;;;;;5.00;3.25;24.30;99.90;;;;;;5066397;28;8861;-53
2022/06/26 01:48:38;;;;;;;;;4.00;4.00;24.30;99.90;;;;;;5058820;28;9602;-56
2022/06/26 01:51:10;;;;;;;;;3.00;3.00;24.50;99.90;;;;;;4997264;28;8861;-53
2022/06/26 01:53:44;;;;;;;;;5.00;5.00;24.30;99.90;;;;;;5068360;28;8869;-54
2022/06/26 01:56:14;;;;;;;;;4.00;4.00;24.40;99.90;;;;;;5005311;28;8827;-53
2022/06/26 01:58:48;;;;;;;;;4.50;4.50;24.60;99.90;;;;;;5076745;28;8835;-54
2022/06/26 02:01:25;;;;;;;;;2.00;2.00;24.50;99.90;;;;;;5059931;28;8846;-54
2022/06/26 02:03:56;;;;;;;;;6.25;6.25;24.30;99.90;;;;;;5072992;28;8830;-56
2022/06/26 02:06:26;;;;;;;;;7.50;7.50;24.30;99.90;;;;;;4991802;28;8841;-53
2022/06/26 02:08:58;;;;;;;;;5.00;5.00;24.30;99.90;;;;;;5057116;28;8848;-53
2022/06/26 02:14:18;;;;;;;;;3.00;3.00;24.30;99.90;;;;;;5063553;28;8876;-55
2022/06/26 02:16:59;;;;;;;;;5.25;5.25;24.20;99.90;;;;;;5066224;28;8835;-55
2022/06/26 02:19:29;;;;;;;;;3.75;3.25;24.00;99.90;;;;;;5013386;28;8824;-55
2022/06/26 02:21:59;;;;;;;;;5.00;5.00;24.10;99.90;;;;;;5059277;28;8843;-56
2022/06/26 02:24:29;;;;;;;;;6.25;5.25;24.10;99.90;;;;;;5068011;28;8826;-56
2022/06/26 02:27:00;;;;;;;;;7.50;4.75;24.10;99.90;;;;;;5058366;28;8888;-54
2022/06/26 02:29:31;;;;;;;;;4.00;4.00;23.80;99.90;;;;;;4987318;28;8829;-56
2022/06/26 02:32:03;;;;;;;;;4.50;4.50;23.90;99.90;;;;;;5062214;28;8905;-55
2022/06/26 02:34:33;;;;;;;;;6.75;4.25;24.00;99.90;;;;;;5067173;28;8889;-55
2022/06/26 02:37:05;;;;;;;;;5.00;5.00;23.70;99.90;;;;;;5066633;28;8897;-55
2022/06/26 02:39:36;;;;;;;;;4.00;4.00;23.40;99.90;;;;;;4989796;28;8825;-54
2022/06/26 02:42:07;;;;;;;;;4.75;4.75;23.40;99.90;;;;;;5068663;28;8876;-54
2022/06/26 02:44:39;;;;;;;;;4.25;4.25;23.50;99.90;;;;;;5072692;28;8852;-54
2022/06/26 02:47:11;;;;;;;;;2.75;2.75;23.40;99.90;;;;;;5061324;28;8837;-52
2022/06/26 02:49:41;;;;;;;;;4.00;4.00;23.20;99.90;;;;;;5043830;28;8852;-54
2022/06/26 02:52:12;;;;;;;;;6.75;5.00;23.40;99.90;;;;;;4995783;28;8854;-53
2022/06/26 02:54:43;;;;;;;;;4.00;4.00;23.50;99.90;;;;;;4990161;28;8840;-52
2022/06/26 02:57:14;;;;;;;;;4.00;4.00;23.60;99.90;;;;;;5033332;28;9667;-48
2022/06/26 02:59:46;;;;;;;;;5.00;5.00;23.60;99.90;;;;;;5070477;28;8885;-50
2022/06/26 03:02:16;;;;;;;;;5.00;5.00;23.50;99.90;;;;;;5002117;28;8993;-52
2022/06/26 03:04:57;;;;;;;;;2.00;2.00;23.50;99.90;;;;;;5064631;28;8900;-53
2022/06/26 03:07:28;;;;;;;;;4.50;4.00;23.50;99.90;;;;;;5065371;28;8838;-52
2022/06/26 03:10:02;;;;;;;;;4.25;4.25;23.40;99.90;;;;;;5056315;28;8924;-53
2022/06/26 03:12:33;;;;;;;;;3.00;3.00;23.40;99.90;;;;;;5062600;28;8923;-56
2022/06/26 03:15:04;;;;;;;;;5.75;4.75;23.40;99.90;;;;;;5042337;28;8893;-51
2022/06/26 03:17:36;;;;;;;;;5.00;5.00;23.40;99.90;;;;;;5058417;28;9589;-53
2022/06/26 03:20:12;;;;;;;;;4.00;4.00;23.30;99.90;;;;;;5053502;28;8846;-51
2022/06/26 03:22:44;;;;;;;;;5.67;5.67;23.20;99.90;;;;;;5064339;28;8889;-52
2022/06/26 03:25:15;;;;;;;;;7.00;6.00;23.10;99.90;;;;;;5055895;28;9006;-49
2022/06/26 03:27:46;;;;;;;;;5.33;5.33;23.10;99.90;;;;;;5078427;28;8847;-54
2022/06/26 03:30:16;;;;;;;;;4.33;4.00;23.00;99.90;;;;;;5066051;28;8993;-48
2022/06/26 03:32:51;;;;;;;;;4.33;3.00;22.90;99.90;;;;;;5064118;28;8912;-56
2022/06/26 03:35:22;;;;;;;;;6.00;6.00;22.80;99.90;;;;;;4990867;28;9127;-56
2022/06/26 03:37:52;;;;;;;;;9.33;7.00;22.60;99.90;;;;;;4991179;28;8959;-58
2022/06/26 03:40:23;;;;;;;;;7.00;7.00;22.50;99.90;;;;;;5048418;28;9093;-59
2022/06/26 03:42:53;;;;;;;;;6.00;6.00;22.50;99.90;;;;;;5059922;28;9873;-57
2022/06/26 03:45:28;;;;;;;;;5.00;4.00;22.50;99.90;;;;;;5058560;28;9001;-56
2022/06/26 03:47:59;;;;;;;;;5.67;4.00;22.10;99.90;;;;;;4991325;28;8896;-56
2022/06/26 03:50:28;;;;;;;;;5.67;5.67;22.00;99.90;;;;;;5041230;28;9097;-59
2022/06/26 03:53:03;;;;;;;;;5.33;5.33;21.90;99.90;;;;;;5057413;28;9145;-58
2022/06/26 03:55:34;;;;;;;;;5.33;4.67;22.00;99.90;;;;;;5064926;28;9180;-57
2022/06/26 03:58:04;;;;;;;;;7.00;6.00;21.90;99.90;;;;;;5059703;28;9200;-56
2022/06/26 04:00:36;;;;;;;;;4.67;4.00;21.90;99.90;;;;;;5058657;28;9435;-56
2022/06/26 04:03:07;;;;;;;;;7.00;7.00;21.80;99.90;;;;;;5057727;28;9565;-56
2022/06/26 04:05:37;;;;;;;;;6.67;6.00;21.80;99.90;;;;;;5046832;28;9255;-58
2022/06/26 04:08:09;;;;;;;;;8.00;7.00;22.10;99.90;;;;;;5055972;28;9169;-58
2022/06/26 04:10:48;;;;;;;;;7.67;7.67;22.10;99.90;;;;;;5060778;28;9105;-58
2022/06/26 04:13:31;;;;;;;;;7.00;7.00;21.90;99.90;;;;;;5066075;28;9115;-58
2022/06/26 04:16:06;;;;;;;;;6.00;6.00;21.90;99.90;;;;;;5049726;28;9076;-57
2022/06/26 04:18:40;;;;;;;;;9.25;5.00;22.10;99.90;;;;;;5056042;28;8925;-57
2022/06/26 04:21:11;;;;;;;;;7.75;7.75;22.10;99.90;;;;;;5066287;28;9609;-57
2022/06/26 04:23:43;;;;;;;;;8.75;6.00;22.00;99.90;;;;;;5049333;28;9636;-56
2022/06/26 04:26:19;;;;;;;;;5.25;5.25;22.20;99.90;;;;;;5047089;28;8865;-57
2022/06/26 04:28:50;;;;;;;;;6.00;6.00;22.50;99.90;;;;;;5077663;28;8891;-56
2022/06/26 04:31:21;;;;;;;;;7.00;5.25;22.80;99.90;;;;;;5058443;28;8842;-57
2022/06/26 04:33:55;;;;;;;;;5.00;5.00;22.80;99.90;;;;;;5070647;28;8899;-57
2022/06/26 04:36:25;;;;;;;;;8.50;5.50;22.80;99.90;;;;;;4992889;28;8829;-57
2022/06/26 04:38:58;;;;;;;;;5.75;5.75;22.70;99.90;;;;;;5070163;28;8886;-56
2022/06/26 04:41:32;;;;;;;;;5.00;5.00;22.70;99.90;;;;;;5066177;28;9000;-56
2022/06/26 04:44:09;;;;;;;;;7.00;7.00;22.70;99.90;;;;;;5057759;28;9611;-56
2022/06/26 04:46:42;;;;;;;;;6.75;5.75;22.60;99.90;;;;;;5043770;28;8957;-57
2022/06/26 04:49:13;;;;;;;;;4.00;4.00;22.50;99.90;;;;;;4997446;28;8884;-57
2022/06/26 04:51:46;;;;;;;;;5.33;5.33;22.30;99.90;;;;;;5038382;28;8861;-56
2022/06/26 04:54:25;;;;;;;;;6.00;6.00;22.30;99.90;;;;;;5072870;28;8961;-56
2022/06/26 04:56:55;;;;;;;;;6.50;6.50;22.20;99.90;;;;;;5075735;28;8968;-56
2022/06/26 04:59:27;;;;;;;;;6.00;6.00;22.10;99.90;;;;;;5075531;28;8849;-56
2022/06/26 05:02:06;;;;;;;;;6.67;5.67;22.10;99.90;;;;;;5019047;28;8845;-56
2022/06/26 05:04:55;;;;;;;;;6.00;6.00;22.00;99.90;;;;;;4995439;28;8936;-55
2022/06/26 05:07:43;;;;;;;;;7.00;7.00;21.90;99.90;;;;;;5006273;28;8841;-57
2022/06/26 05:10:14;;;;;;;;;5.00;5.00;21.80;99.90;;;;;;5007448;28;8932;-55
2022/06/26 05:12:55;;;;;;;;;4.67;4.67;21.80;99.90;;;;;;5070981;28;9189;-57
2022/06/26 05:15:35;;;;;;;;;5.33;5.33;21.70;99.90;;;;;;4996512;28;9055;-56
2022/06/26 05:18:09;;;;;;;;;4.33;4.33;21.60;99.90;;;;;;5072575;28;9098;-55
2022/06/26 05:20:39;;;;;;;;;5.67;5.67;21.60;99.90;;;;;;5065764;28;9253;-56
2022/06/26 05:23:11;;;;;;;;;5.00;5.00;21.50;99.90;;;;;;4992544;28;9192;-56
2022/06/26 05:25:59;;;;;;;;;7.00;7.00;21.50;99.90;;;;;;5067354;28;9072;-55
2022/06/26 05:28:28;;;;;;;;;3.67;3.67;21.40;99.90;;;;;;5001980;28;9304;-57
2022/06/26 05:31:00;;;;;;;;;9.00;7.33;21.30;99.90;;;;;;5065708;28;9104;-56
2022/06/26 05:33:34;;;;;;;;;7.33;7.00;21.30;99.90;;;;;;5087495;28;9301;-57
2022/06/26 05:36:07;;;;;;;;;4.00;4.00;21.30;99.90;;;;;;5056342;28;9393;-54
2022/06/26 05:38:40;;;;;;;;;7.67;6.67;21.20;99.90;;;;;;5061901;28;9397;-56
2022/06/26 05:41:11;;;;;;;;;7.67;6.00;21.10;99.90;;;;;;5075287;28;9447;-55
2022/06/26 05:43:44;;;;;;;;;6.33;6.33;21.00;99.90;;;;;;4993455;28;9245;-53
2022/06/26 05:46:15;;;;;;;;;7.00;7.00;21.00;99.90;;;;;;5057840;28;9641;-56
2022/06/26 05:48:55;;;;;;;;;6.67;5.33;21.00;99.90;;;;;;4991652;28;9594;-57
2022/06/26 05:52:01;;;;;;;;;7.33;7.00;20.90;99.90;;;;;;4991826;28;9479;-57
2022/06/26 05:54:51;;;;;;;;;8.33;7.67;20.90;99.90;;;;;;5003828;28;9639;-56
2022/06/26 05:57:47;;;;;;;;;6.67;6.67;20.90;99.90;;;;;;4996046;28;9443;-56
2022/06/26 06:00:55;;;;;;;;;7.33;7.33;20.80;99.90;;;;;;5033619;28;9404;-56
2022/06/26 06:03:26;;;;;;;;;12.00;8.50;20.80;99.90;;;;;;5026815;28;9372;-54
2022/06/26 06:05:59;;;;;;;;;7.33;7.33;20.70;99.90;;;;;;5029642;28;9631;-56
2022/06/26 06:08:29;;;;;;;;;7.00;6.00;20.70;99.90;;;;;;5070708;28;9540;-54
2022/06/26 06:11:00;;;;;;;;;5.67;5.33;20.60;99.90;;;;;;4994453;28;9389;-55
2022/06/26 06:13:33;;;;;;;;;7.00;7.00;20.60;99.90;;;;;;5067727;28;9420;-57
2022/06/26 06:16:04;;;;;;;;;8.33;6.33;20.50;99.90;;;;;;5039208;28;9536;-56
2022/06/26 06:18:35;;;;;;;;;8.25;7.50;20.50;99.90;;;;;;5055879;28;9712;-56
2022/06/26 06:21:13;;;;;;;;;7.50;7.50;20.40;99.90;;;;;;5069580;28;9705;-56
2022/06/26 06:23:45;;;;;;;;;5.00;5.00;20.40;99.90;;;;;;5005968;28;9676;-53
2022/06/26 06:26:15;;;;;;;;;8.75;7.75;20.40;99.90;;;;;;4998645;28;9703;-56
2022/06/26 06:28:47;;;;;;;;;8.00;8.00;20.30;99.90;;;;;;5058616;28;9764;-55
2022/06/26 06:31:18;;;;;;;;;8.25;7.50;20.30;99.90;;;;;;5074774;28;9763;-56
2022/06/26 06:33:48;;;;;;;;;7.00;7.00;20.30;99.90;;;;;;5055046;28;9823;-53
2022/06/26 06:36:20;;;;;;;;;9.75;7.00;20.20;99.90;;;;;;5065007;28;9595;-56
2022/06/26 06:38:51;;;;;;;;;7.25;7.25;20.20;99.90;;;;;;5073949;28;9818;-55
2022/06/26 06:41:23;;;;;;;;;7.00;7.00;20.20;99.90;;;;;;5072973;28;9853;-55
2022/06/26 06:44:05;;;;;;;;;5.00;5.00;20.10;99.90;;;;;;5063314;28;9886;-56
2022/06/26 06:46:53;;;;;;;;;7.00;7.00;20.10;99.90;;;;;;4995230;28;9713;-54
2022/06/26 06:49:31;;;;;;;;;8.50;7.25;20.00;99.90;;;;;;4980142;28;9830;-55
2022/06/26 06:52:05;;;;;;;;;6.75;6.75;20.00;99.90;;;;;;4979385;28;9900;-55
2022/06/26 06:54:35;;;;;;;;;7.00;6.00;20.00;99.90;;;;;;4976505;28;10139;-53
2022/06/26 06:57:07;;;;;;;;;6.00;6.00;20.00;99.90;;;;;;4977522;28;9708;-55
2022/06/26 06:59:37;;;;;;;;;7.00;7.00;19.90;99.90;;;;;;4984485;28;9943;-54
2022/06/26 07:02:09;;;;;;;;;7.50;7.25;19.90;99.90;;;;;;4986511;28;9789;-53
2022/06/26 07:04:39;;;;;;;;;8.75;6.25;19.90;99.90;;;;;;4982097;28;9927;-53
2022/06/26 07:07:10;;;;;;;;;5.75;5.75;19.90;99.90;;;;;;4985558;28;9684;-53
2022/06/26 07:09:40;;;;;;;;;5.00;5.00;19.80;99.90;;;;;;4976982;28;9787;-55
2022/06/26 07:12:11;;;;;;;;;5.00;5.00;19.80;99.90;;;;;;4969105;28;9760;-54
2022/06/26 07:14:41;;;;;;;;;8.25;6.75;19.70;99.90;;;;;;4959602;28;9755;-53
2022/06/26 07:17:11;;;;;;;;;6.25;6.25;19.70;99.90;;;;;;4975020;28;9918;-50
2022/06/26 07:19:43;;;;;;;;;9.75;7.50;19.70;99.90;;;;;;4980825;28;10652;-52
2022/06/26 07:22:15;;;;;;;;;7.50;5.50;19.60;99.90;;;;;;4973609;28;10087;-51
2022/06/26 07:24:46;;;;;;;;;5.00;5.00;19.60;99.90;;;;;;4980727;28;9868;-57
2022/06/26 07:27:34;;;;;;;;;6.25;4.50;19.60;99.90;;;;;;4979620;28;9991;-56
2022/06/26 07:30:05;;;;;;;;;6.00;6.00;19.60;99.90;;;;;;4978366;28;10134;-56
2022/06/26 07:32:48;;;;;;;;;7.50;5.50;19.60;99.90;;;;;;4980173;28;9892;-57
2022/06/26 07:35:18;;;;;;;;;6.00;5.00;19.60;99.90;;;;;;4981248;28;10612;-56
2022/06/26 07:37:49;;;;;;;;;6.25;6.00;19.50;99.90;;;;;;4977913;28;10101;-55
2022/06/26 07:40:21;;;;;;;;;5.00;5.00;19.50;99.90;;;;;;4982344;28;10071;-55
2022/06/26 07:42:53;;;;;;;;;7.75;7.75;19.50;99.90;;;;;;4984641;28;10868;-57
2022/06/26 07:45:30;;;;;;;;;6.25;6.25;19.40;99.90;;;;;;4985911;28;9866;-58
2022/06/26 07:48:04;;;;;;;;;4.00;4.00;19.40;99.90;;;;;;5015797;28;9919;-57
2022/06/26 07:50:37;;;;;;;;;7.50;5.25;19.40;99.90;;;;;;5058895;28;9714;-53
2022/06/26 07:53:08;;;;;;;;;6.50;6.00;19.40;99.90;;;;;;5078820;28;9991;-54
2022/06/26 07:55:37;;;;;;;;;7.25;4.50;19.30;99.90;;;;;;5082129;28;9941;-56
2022/06/26 07:58:10;;;;;;;;;7.50;5.25;19.30;99.90;;;;;;5078063;28;9935;-55
2022/06/26 08:00:40;;;;;;;;;5.50;5.50;19.30;99.90;;;;;;5074792;28;9793;-54
2022/06/26 08:03:15;;;;;;;;;4.75;4.25;19.30;99.90;;;;;;5074453;28;10003;-55
2022/06/26 08:05:46;;;;;;;;;7.50;6.75;19.30;99.90;;;;;;5081003;28;10072;-56
2022/06/26 08:08:17;;;;;;;;;6.00;6.00;19.30;99.90;;;;;;5080887;28;9735;-54
2022/06/26 08:10:47;;;;;;;;;5.25;5.25;19.20;99.90;;;;;;5078361;28;10047;-55
2022/06/26 08:13:19;;;;;;;;;6.00;4.50;19.20;99.90;;;;;;5076216;28;10011;-54
2022/06/26 08:15:48;;;;;;;;;3.75;3.00;19.20;99.90;;;;;;5080916;28;10088;-55
2022/06/26 08:18:19;;;;;;;;;10.00;8.00;19.10;99.90;;;;;;5073981;28;9867;-56
2022/06/26 08:20:49;;;;;;;;;4.50;4.50;19.10;99.90;;;;;;5076901;28;9931;-56
2022/06/26 08:23:21;;;;;;;;;8.50;4.50;19.10;99.90;;;;;;5083987;28;9967;-56
2022/06/26 08:25:52;;;;;;;;;10.25;6.25;19.10;99.90;;;;;;5073500;28;10213;-54
2022/06/26 08:28:22;;;;;;;;;5.75;5.75;19.00;99.90;;;;;;5077332;28;9951;-55
2022/06/26 08:30:54;;;;;;;;;8.00;5.00;19.00;99.90;;;;;;5079270;28;10071;-55
2022/06/26 08:33:24;;;;;;;;;6.00;6.00;19.00;99.90;;;;;;5077104;28;10111;-53
2022/06/26 08:35:55;;;;;;;;;5.75;5.75;18.90;99.90;;;;;;5078019;28;10228;-54
2022/06/26 08:38:25;;;;;;;;;7.50;6.00;18.90;99.90;;;;;;5071913;28;11069;-54
2022/06/26 08:41:02;;;;;;;;;8.00;7.75;18.90;99.90;;;;;;5079235;28;10262;-55
2022/06/26 08:43:34;;;;;;;;;4.25;4.25;18.90;99.90;;;;;;5076346;28;10420;-57
2022/06/26 08:46:05;;;;;;;;;8.00;8.00;18.80;99.90;;;;;;5082237;28;10302;-54
2022/06/26 08:48:44;;;;;;;;;9.50;9.50;18.80;99.90;;;;;;5017274;28;10516;-55
2022/06/26 08:51:15;;;;;;;;;9.75;9.75;18.80;99.90;;;;;;5066195;28;10605;-55
2022/06/26 08:53:46;;;;;;;;;9.25;9.25;18.80;99.90;;;;;;5070204;28;10846;-53
2022/06/26 08:56:17;;;;;;;;;7.50;7.50;18.80;99.90;;;;;;5008405;28;10776;-55
2022/06/26 08:58:47;;;;;;;;;8.75;8.50;18.80;99.90;;;;;;4998859;28;10536;-52
2022/06/26 09:01:17;;;;;;;;;10.50;10.50;18.70;99.90;;;;;;5000853;28;10685;-54
2022/06/26 09:03:49;;;;;;;;;10.50;10.50;18.70;99.90;;;;;;4996315;28;10651;-56
2022/06/26 09:06:18;;;;;;;;;13.00;11.00;18.70;99.90;;;;;;5000736;28;12454;-55
2022/06/26 09:08:49;;;;;;;;;10.00;10.00;18.70;99.90;;;;;;4990901;28;10790;-55
2022/06/26 09:11:20;;;;;;;;;15.25;13.25;18.60;99.90;;;;;;4994854;28;11417;-57
2022/06/26 09:13:53;;;;;;;;;11.25;11.00;18.60;99.90;;;;;;4993162;28;11615;-54
2022/06/26 09:16:32;;;;;;;;;10.50;9.50;18.60;99.90;;;;;;5000067;28;10727;-55
2022/06/26 09:19:12;;;;;;;;;13.75;13.75;18.60;99.90;;;;;;4990742;28;10834;-54
2022/06/26 09:21:43;;;;;;;;;14.75;14.75;18.60;99.90;;;;;;4995489;28;10880;-55
2022/06/26 09:24:17;;;;;;;;;11.25;11.25;18.60;99.90;;;;;;4991369;28;11150;-55
2022/06/26 09:27:10;;;;;;;;;15.00;13.50;18.60;99.90;;;;;;5002231;28;10851;-55
2022/06/26 09:29:41;;;;;;;;;15.25;15.25;18.60;99.90;;;;;;4999220;28;10799;-55
2022/06/26 09:32:16;;;;;;;;;17.75;15.00;18.50;99.90;;;;;;4994037;28;11041;-53
2022/06/26 09:34:53;;;;;;;;;18.25;18.25;18.50;99.90;;;;;;4996919;28;10966;-55
2022/06/26 09:37:24;;;;;;;;;21.00;20.00;18.50;99.90;;;;;;4999080;28;10981;-54
2022/06/26 09:40:16;;;;;;;;;17.75;17.25;18.50;99.90;;;;;;4997737;28;10976;-53
2022/06/26 09:42:47;;;;;;;;;20.50;20.50;18.40;99.90;;;;;;4993874;28;10948;-55
2022/06/26 09:45:18;;;;;;;;;29.75;27.25;18.40;99.90;;;;;;4999464;28;10939;-54
2022/06/26 09:47:50;;;;;;;;;21.75;21.75;18.40;99.90;;;;;;4991846;28;11244;-55
2022/06/26 09:50:21;;;;;;;;;20.75;20.25;18.30;99.90;;;;;;5062955;28;11170;-54
2022/06/26 09:52:52;;;;;;;;;11.25;10.25;18.30;99.90;;;;;;5001267;28;12246;-54
2022/06/26 09:55:22;;;;;;;;;10.25;8.75;18.30;99.90;;;;;;4996364;28;11875;-55
2022/06/26 09:57:52;;;;;;;;;11.50;11.50;18.30;99.90;;;;;;5000115;28;10726;-54
2022/06/26 10:00:22;;;;;;;;;12.75;12.75;18.20;99.90;;;;;;4992902;28;10631;-54
2022/06/26 10:08:33;;;;;;;;;20.25;20.25;18.20;99.90;;;;;;4992192;28;10621;-56
2022/06/26 10:11:04;;;;;;;;;14.75;14.00;18.20;99.90;;;;;;4998668;28;11454;-55
2022/06/26 10:13:38;;;;;;;;;15.25;15.25;18.20;99.90;;;;;;5000854;28;10669;-54
2022/06/26 10:16:23;;;;;;;;;16.00;13.25;18.10;99.90;;;;;;4995065;28;10704;-55
2022/06/26 10:19:06;;;;;;;;;14.50;14.50;18.10;99.90;;;;;;4994678;28;10712;-55
2022/06/26 10:21:42;;;;;;;;;12.75;11.50;18.10;99.90;;;;;;4993000;28;10589;-54
2022/06/26 10:24:15;;;;;;;;;13.50;13.50;18.10;99.90;;;;;;4997793;28;10560;-54
2022/06/26 10:26:57;;;;;;;;;12.00;12.00;18.00;99.90;;;;;;4995005;28;11174;-54
2022/06/26 10:29:39;;;;;;;;;10.00;10.00;18.00;99.90;;;;;;4995469;28;10538;-54
2022/06/26 10:32:10;;;;;;;;;12.75;12.50;18.00;99.90;;;;;;4993415;28;10398;-54
2022/06/26 10:34:40;;;;;;;;;12.25;10.00;18.00;99.90;;;;;;5062448;28;10468;-55
2022/06/26 10:37:18;;;;;;;;;12.25;11.75;17.90;99.90;;;;;;4987713;28;10764;-54
2022/06/26 10:39:51;;;;;;;;;9.75;9.75;17.90;99.90;;;;;;4986678;28;10573;-55
2022/06/26 10:45:29;;;;;;;;;11.25;11.25;17.90;99.90;;;;;;4999433;28;10634;-55
2022/06/26 10:48:02;;;;;;;;;11.25;11.25;17.90;99.90;;;;;;5070172;28;10593;-54
2022/06/26 10:50:36;;;;;;;;;7.75;7.75;17.90;99.90;;;;;;5029725;28;10847;-55
2022/06/26 10:53:14;;;;;;;;;7.00;5.75;17.90;99.90;;;;;;5070236;28;10572;-55
2022/06/26 10:55:50;;;;;;;;;9.75;9.75;17.80;99.90;;;;;;5046592;28;10582;-54
2022/06/26 10:58:29;;;;;;;;;8.50;8.25;17.80;99.90;;;;;;5064231;28;10760;-55
2022/06/26 11:01:02;;;;;;;;;11.50;10.00;17.80;99.90;;;;;;5038699;28;11491;-57
2022/06/26 11:03:35;;;;;;;;;6.25;6.25;17.70;99.90;;;;;;5048202;28;10756;-55
2022/06/26 11:06:11;;;;;;;;;4.75;4.75;17.70;99.90;;;;;;5046928;28;10666;-54
2022/06/26 11:08:46;;;;;;;;;8.75;7.00;17.70;99.90;;;;;;5043173;28;10578;-54
2022/06/26 11:11:22;;;;;;;;;7.50;6.25;17.70;99.90;;;;;;5044834;28;10751;-55
2022/06/26 11:14:08;;;;;;;;;6.75;6.75;17.70;99.90;;;;;;5044146;28;10654;-55
2022/06/26 11:16:45;;;;;;;;;8.00;8.00;17.70;99.90;;;;;;5040368;28;10831;-54
2022/06/26 11:19:23;;;;;;;;;11.25;8.50;17.70;99.90;;;;;;5040536;28;10793;-53
2022/06/26 11:22:08;;;;;;;;;8.00;7.75;17.70;99.90;;;;;;5032362;28;10941;-54
2022/06/26 11:24:58;;;;;;;;;7.00;7.00;17.70;99.90;;;;;;5042158;28;10808;-55
2022/06/26 11:27:30;;;;;;;;;10.25;9.25;17.70;99.90;;;;;;5070860;28;10847;-54
2022/06/26 11:30:00;;;;;;;;;6.50;6.00;17.70;99.90;;;;;;5032916;28;12090;-53
2022/06/26 11:32:30;;;;;;;;;7.00;3.25;17.60;99.90;;;;;;5070179;28;10638;-56
2022/06/26 11:35:00;;;;;;;;;7.50;7.50;17.60;99.90;;;;;;5042889;28;10837;-54
2022/06/26 11:37:36;;;;;;;;;8.50;7.00;17.60;99.90;;;;;;5038457;28;10704;-53
2022/06/26 11:40:13;;;;;;;;;6.00;6.00;17.60;99.90;;;;;;5047354;28;10779;-54
2022/06/26 11:42:44;;;;;;;;;5.50;5.50;17.60;99.90;;;;;;5034178;28;10831;-54
2022/06/26 11:45:21;;;;;;;;;9.75;8.00;17.50;99.90;;;;;;5068677;28;10580;-55
2022/06/26 11:47:53;;;;;;;;;7.25;7.25;17.60;99.90;;;;;;5033103;28;10690;-55
2022/06/26 11:50:27;;;;;;;;;6.00;6.00;17.60;99.90;;;;;;5031439;28;10659;-55
2022/06/26 11:52:59;;;;;;;;;3.75;3.00;17.60;99.90;;;;;;5072363;28;10742;-54
2022/06/26 11:55:31;;;;;;;;;7.00;6.25;17.50;99.90;;;;;;5046366;28;10687;-54
2022/06/26 11:58:03;;;;;;;;;6.25;6.25;17.50;99.90;;;;;;5028230;28;11551;-53
2022/06/26 12:00:32;;;;;;;;;7.75;6.00;17.50;99.90;;;;;;5032758;28;10707;-54
2022/06/26 12:03:03;;;;;;;;;7.00;5.00;17.50;99.90;;;;;;5030040;28;10822;-54
2022/06/26 12:05:35;;;;;;;;;11.00;9.00;17.50;99.90;;;;;;5041495;28;10553;-52
2022/06/26 12:08:17;;;;;;;;;11.75;10.75;17.40;99.90;;;;;;5044722;28;10870;-54
2022/06/26 12:10:50;;;;;;;;;10.50;10.50;17.50;99.90;;;;;;5030767;28;10718;-56
2022/06/26 12:13:29;;;;;;;;;13.25;10.00;17.50;99.90;;;;;;5044145;28;10734;-55
2022/06/26 12:16:08;;;;;;;;;8.50;8.50;17.50;99.90;;;;;;5039283;28;10859;-55
2022/06/26 12:18:40;;;;;;;;;10.50;10.50;17.50;99.90;;;;;;5026062;28;10807;-56
2022/06/26 12:21:17;;;;;;;;;14.25;11.75;17.50;99.90;;;;;;5033727;28;10963;-55
2022/06/26 12:23:49;;;;;;;;;9.50;9.50;17.50;99.90;;;;;;5053272;28;10675;-55
2022/06/26 12:26:24;;;;;;;;;9.75;9.75;17.50;99.90;;;;;;5038544;28;10897;-53
2022/06/26 12:29:00;;;;;;;;;10.00;10.00;17.50;99.90;;;;;;5043664;28;10896;-54
2022/06/26 12:31:30;;;;;;;;;10.50;10.00;17.50;99.90;;;;;;5030560;28;10915;-55
2022/06/26 12:34:04;;;;;;;;;12.25;10.50;17.50;99.90;;;;;;5065283;28;10940;-55
2022/06/26 12:36:37;;;;;;;;;13.00;12.00;17.50;99.90;;;;;;5067022;28;11596;-57
2022/06/26 12:39:09;;;;;;;;;12.00;12.00;17.40;99.90;;;;;;5030036;28;11610;-54
2022/06/26 12:41:59;;;;;;;;;11.25;11.25;17.40;99.90;;;;;;5038932;28;10931;-56
2022/06/26 12:44:29;;;;;;;;;10.00;10.00;17.50;99.90;;;;;;5038558;28;10815;-55
2022/06/26 12:47:00;;;;;;;;;12.00;9.00;17.50;99.90;;;;;;5037514;28;10893;-55
2022/06/26 12:49:30;;;;;;;;;10.50;9.00;17.50;99.90;;;;;;5073762;28;10884;-54
2022/06/26 12:52:00;;;;;;;;;8.00;7.25;17.50;99.90;;;;;;5036501;28;10944;-56
2022/06/26 12:54:31;;;;;;;;;7.50;7.50;17.40;99.90;;;;;;5075548;28;10810;-55
2022/06/26 12:57:01;;;;;;;;;10.25;9.50;17.50;99.90;;;;;;5054440;28;11622;-55
2022/06/26 12:59:31;;;;;;;;;7.25;6.75;17.40;99.90;;;;;;5039515;28;10877;-57
2022/06/26 13:02:01;;;;;;;;;8.00;6.25;17.40;99.90;;;;;;5032796;28;10666;-56
2022/06/26 13:04:32;;;;;;;;;9.25;9.25;17.40;99.90;;;;;;5039838;28;10775;-54
2022/06/26 13:07:03;;;;;;;;;7.00;7.00;17.40;99.90;;;;;;5050597;28;11787;-53
2022/06/26 13:09:34;;;;;;;;;9.00;7.50;17.40;99.90;;;;;;5030103;28;10991;-52
2022/06/26 13:12:03;;;;;;;;;8.75;8.75;17.40;99.90;;;;;;5041223;28;11667;-54
2022/06/26 13:14:34;;;;;;;;;9.75;8.00;17.40;99.90;;;;;;5043049;28;10888;-55
2022/06/26 13:17:05;;;;;;;;;9.75;9.75;17.40;99.90;;;;;;5039738;28;11041;-54
2022/06/26 13:19:36;;;;;;;;;12.75;10.25;17.40;99.90;;;;;;5049073;28;11023;-55
2022/06/26 13:22:07;;;;;;;;;11.00;8.75;17.40;99.90;;;;;;5042734;28;11125;-53
2022/06/26 13:24:37;;;;;;;;;8.00;6.50;17.40;99.90;;;;;;5067203;28;11105;-54
2022/06/26 13:27:08;;;;;;;;;11.25;11.25;17.40;99.90;;;;;;5021237;28;11127;-54
2022/06/26 13:29:38;;;;;;;;;13.50;12.25;17.40;99.90;;;;;;5013694;28;11238;-55
2022/06/26 13:32:10;;;;;;;;;10.50;10.50;17.40;99.90;;;;;;5029895;28;11170;-55